Time;durP1;ratioP1;P1;durP2;ratioP2;P2;SDS_P1;SDS_P2;PMS_P1;PMS_P2;Temp;Humidity;BMP_temperature;BMP_pressure;BME280_temperature;BME280_humidity;BME280_pressure;Samples;Min_cycle;Max_cycle;Signal;HPM_P1;HPM_P2
2020/12/17 00:01:20;;;;;;;16.20;1.65;;;;;;;;;;4943844;29;20035;-57
2020/12/17 00:03:46;;;;;;;13.25;1.95;;;;;;;;;;4927023;29;20275;-56
2020/12/17 00:06:12;;;;;;;13.05;1.95;;;;;;;;;;4942313;28;20510;-58
2020/12/17 00:08:38;;;;;;;20.55;2.50;;;;;;;;;;4943848;29;20035;-57
2020/12/17 00:11:04;;;;;;;23.90;2.50;;;;;;;;;;4946329;29;20043;-55
2020/12/17 00:13:30;;;;;;;17.75;2.83;;;;;;;;;;4941661;29;20042;-58
2020/12/17 00:15:55;;;;;;;19.85;2.67;;;;;;;;;;4945050;29;20088;-56
2020/12/17 00:18:21;;;;;;;14.65;3.13;;;;;;;;;;4945347;29;20058;-59
2020/12/17 00:20:47;;;;;;;19.10;3.05;;;;;;;;;;4944604;29;20099;-59
2020/12/17 00:23:13;;;;;;;8.10;2.55;;;;;;;;;;4941910;29;20591;-59
2020/12/17 00:25:40;;;;;;;19.85;3.33;;;;;;;;;;4940921;29;20067;-58
2020/12/17 00:28:06;;;;;;;10.88;2.88;;;;;;;;;;4932637;29;20103;-58
2020/12/17 00:30:32;;;;;;;10.40;3.10;;;;;;;;;;4943699;29;20074;-58
2020/12/17 00:32:58;;;;;;;22.67;2.58;;;;;;;;;;4942991;29;20044;-58
2020/12/17 00:35:24;;;;;;;18.50;2.80;;;;;;;;;;4942291;29;20433;-58
2020/12/17 00:37:49;;;;;;;13.32;2.30;;;;;;;;;;4945388;29;20044;-59
2020/12/17 00:40:16;;;;;;;17.67;2.47;;;;;;;;;;4943617;29;20043;-57
2020/12/17 00:42:45;;;;;;;11.40;2.63;;;;;;;;;;4927217;29;20041;-58
2020/12/17 00:45:12;;;;;;;10.00;2.53;;;;;;;;;;4942816;29;20070;-58
2020/12/17 00:47:38;;;;;;;12.98;2.40;;;;;;;;;;4945880;28;20039;-58
2020/12/17 00:50:04;;;;;;;6.80;1.77;;;;;;;;;;4946848;29;20032;-59
2020/12/17 00:52:31;;;;;;;14.02;2.25;;;;;;;;;;4947382;29;20043;-58
2020/12/17 00:54:56;;;;;;;6.32;1.75;;;;;;;;;;4948845;29;20055;-58
2020/12/17 00:57:26;;;;;;;22.80;2.50;;;;;;;;;;4945968;29;20114;-58
2020/12/17 00:59:52;;;;;;;10.57;2.40;;;;;;;;;;4947840;28;20960;-59
2020/12/17 01:02:18;;;;;;;24.65;3.30;;;;;;;;;;4946576;29;20039;-57
2020/12/17 01:04:44;;;;;;;16.85;3.03;;;;;;;;;;4946425;29;20167;-58
2020/12/17 01:07:10;;;;;;;12.35;3.00;;;;;;;;;;4946099;29;20042;-58
2020/12/17 01:09:36;;;;;;;25.35;3.63;;;;;;;;;;4945365;29;20051;-59
2020/12/17 01:12:04;;;;;;;14.70;2.83;;;;;;;;;;4946475;29;20031;-58
2020/12/17 01:14:30;;;;;;;10.93;2.78;;;;;;;;;;4945091;29;20150;-56
2020/12/17 01:16:56;;;;;;;11.02;3.35;;;;;;;;;;4946170;29;20063;-57
2020/12/17 01:19:22;;;;;;;12.98;3.55;;;;;;;;;;4946002;28;20071;-59
2020/12/17 01:21:51;;;;;;;17.85;3.60;;;;;;;;;;4945929;29;20040;-59
2020/12/17 01:24:16;;;;;;;18.48;4.00;;;;;;;;;;4945096;29;20043;-59
2020/12/17 01:26:43;;;;;;;19.52;4.65;;;;;;;;;;4946837;29;20099;-59
2020/12/17 01:29:09;;;;;;;15.43;4.40;;;;;;;;;;4946255;29;20040;-57
2020/12/17 01:31:35;;;;;;;16.65;4.43;;;;;;;;;;4946416;29;20054;-57
2020/12/17 01:34:00;;;;;;;23.48;5.15;;;;;;;;;;4945380;29;20058;-58
2020/12/17 01:36:26;;;;;;;19.92;4.90;;;;;;;;;;4933560;29;20036;-58
2020/12/17 01:38:52;;;;;;;26.20;4.55;;;;;;;;;;4934429;29;20114;-57
2020/12/17 01:41:18;;;;;;;21.40;5.65;;;;;;;;;;4945769;29;20102;-55
2020/12/17 01:43:45;;;;;;;23.92;4.90;;;;;;;;;;4943923;29;20183;-57
2020/12/17 01:46:12;;;;;;;13.90;3.90;;;;;;;;;;4945584;29;20053;-57
2020/12/17 01:48:39;;;;;;;16.05;3.88;;;;;;;;;;4945109;29;20055;-54
2020/12/17 01:51:05;;;;;;;22.95;3.88;;;;;;;;;;4946320;29;20162;-56
2020/12/17 01:53:38;;;;;;;16.60;3.60;;;;;;;;;;4944255;29;20159;-56
2020/12/17 01:56:06;;;;;;;13.73;3.67;;;;;;;;;;4946929;29;20051;-57
2020/12/17 01:58:34;;;;;;;8.60;3.30;;;;;;;;;;4946197;28;20073;-58
2020/12/17 02:01:00;;;;;;;15.27;3.30;;;;;;;;;;4945512;29;20058;-57
2020/12/17 02:03:26;;;;;;;15.52;3.20;;;;;;;;;;4944520;29;20144;-57
2020/12/17 02:05:52;;;;;;;16.88;3.70;;;;;;;;;;4944813;29;20047;-57
2020/12/17 02:08:18;;;;;;;18.95;3.90;;;;;;;;;;4945395;29;22203;-58
2020/12/17 02:10:44;;;;;;;12.13;3.83;;;;;;;;;;4926847;29;20044;-57
2020/12/17 02:13:11;;;;;;;13.70;3.13;;;;;;;;;;4945602;29;20027;-57
2020/12/17 02:15:37;;;;;;;16.88;3.08;;;;;;;;;;4946482;29;20102;-58
2020/12/17 02:18:03;;;;;;;11.73;3.97;;;;;;;;;;4929475;29;20032;-59
2020/12/17 02:20:29;;;;;;;13.85;4.45;;;;;;;;;;4946252;29;20043;-56
2020/12/17 02:22:55;;;;;;;16.05;3.83;;;;;;;;;;4946248;29;21749;-56
2020/12/17 02:25:21;;;;;;;15.38;4.35;;;;;;;;;;4946959;29;21063;-57
2020/12/17 02:27:47;;;;;;;12.73;3.47;;;;;;;;;;4949888;29;20066;-57
2020/12/17 02:30:13;;;;;;;12.43;3.53;;;;;;;;;;4949220;29;20039;-56
2020/12/17 02:32:39;;;;;;;11.32;4.05;;;;;;;;;;4950227;29;20039;-58
2020/12/17 02:35:06;;;;;;;13.48;3.65;;;;;;;;;;4950520;29;20103;-58
2020/12/17 02:37:32;;;;;;;16.02;3.40;;;;;;;;;;4949945;29;20089;-58
2020/12/17 02:39:58;;;;;;;9.27;2.63;;;;;;;;;;4950016;29;20061;-58
2020/12/17 02:42:24;;;;;;;15.10;2.65;;;;;;;;;;4952587;29;20580;-57
2020/12/17 02:44:50;;;;;;;11.75;2.45;;;;;;;;;;4950370;29;20047;-58
2020/12/17 02:47:16;;;;;;;11.05;2.67;;;;;;;;;;4942114;29;20042;-58
2020/12/17 02:49:42;;;;;;;12.25;2.45;;;;;;;;;;4953071;29;20063;-58
2020/12/17 02:52:08;;;;;;;9.77;2.60;;;;;;;;;;4954831;29;20046;-58
2020/12/17 02:54:33;;;;;;;8.70;2.78;;;;;;;;;;4957832;29;20062;-59
2020/12/17 02:56:59;;;;;;;10.15;3.35;;;;;;;;;;4957379;29;20047;-58
2020/12/17 02:59:25;;;;;;;11.52;2.78;;;;;;;;;;4956042;29;20138;-58
2020/12/17 03:01:51;;;;;;;13.18;2.80;;;;;;;;;;4956666;29;20044;-59
2020/12/17 03:04:17;;;;;;;7.90;2.25;;;;;;;;;;4954510;29;20123;-58
2020/12/17 03:06:43;;;;;;;8.23;2.03;;;;;;;;;;4952101;29;20039;-58
2020/12/17 03:09:09;;;;;;;11.10;2.53;;;;;;;;;;4948137;29;20040;-56
2020/12/17 03:11:34;;;;;;;7.13;2.25;;;;;;;;;;4946695;29;20035;-57
2020/12/17 03:14:00;;;;;;;14.95;3.17;;;;;;;;;;4943227;29;20046;-55
2020/12/17 03:16:26;;;;;;;9.95;2.65;;;;;;;;;;4944537;29;20040;-57
2020/12/17 03:18:55;;;;;;;11.50;2.65;;;;;;;;;;4946818;29;20040;-56
2020/12/17 03:21:21;;;;;;;10.40;3.15;;;;;;;;;;4945569;29;20050;-57
2020/12/17 03:23:47;;;;;;;16.85;3.53;;;;;;;;;;4943841;29;20040;-58
2020/12/17 03:26:13;;;;;;;14.02;3.10;;;;;;;;;;4945259;29;20047;-58
2020/12/17 03:28:39;;;;;;;20.55;3.40;;;;;;;;;;4943314;29;20106;-57
2020/12/17 03:31:05;;;;;;;9.45;3.38;;;;;;;;;;4944390;29;20047;-59
2020/12/17 03:33:31;;;;;;;14.30;3.80;;;;;;;;;;4943987;29;20130;-59
2020/12/17 03:35:56;;;;;;;14.38;3.25;;;;;;;;;;4943737;29;20077;-59
2020/12/17 03:38:22;;;;;;;11.02;3.70;;;;;;;;;;4945273;29;20054;-57
2020/12/17 03:40:48;;;;;;;14.80;3.55;;;;;;;;;;4945459;29;20042;-59
2020/12/17 03:43:14;;;;;;;12.88;4.45;;;;;;;;;;4945218;29;20118;-59
2020/12/17 03:45:40;;;;;;;13.27;3.65;;;;;;;;;;4944797;29;20039;-58
2020/12/17 03:48:06;;;;;;;15.73;4.10;;;;;;;;;;4943821;29;20047;-59
2020/12/17 03:50:32;;;;;;;16.52;4.03;;;;;;;;;;4943041;29;20035;-58
2020/12/17 03:52:57;;;;;;;12.40;4.35;;;;;;;;;;4944678;29;20492;-60
2020/12/17 03:55:23;;;;;;;16.52;3.50;;;;;;;;;;4932536;29;20126;-58
2020/12/17 03:57:49;;;;;;;9.15;2.97;;;;;;;;;;4944986;29;20046;-59
2020/12/17 04:00:15;;;;;;;9.75;2.60;;;;;;;;;;4945873;29;20048;-58
2020/12/17 04:02:41;;;;;;;10.05;2.80;;;;;;;;;;4944982;29;20219;-58
2020/12/17 04:05:07;;;;;;;8.32;2.50;;;;;;;;;;4942766;29;20302;-58
2020/12/17 04:07:33;;;;;;;13.43;2.75;;;;;;;;;;4945846;29;20075;-59
2020/12/17 04:09:59;;;;;;;7.45;2.20;;;;;;;;;;4944884;29;20039;-58
2020/12/17 04:12:24;;;;;;;6.85;1.55;;;;;;;;;;4945034;29;20043;-59
2020/12/17 04:14:50;;;;;;;6.07;1.13;;;;;;;;;;4944622;29;20073;-59
2020/12/17 04:17:16;;;;;;;4.15;0.90;;;;;;;;;;4944852;29;20036;-58
2020/12/17 04:19:42;;;;;;;3.63;1.00;;;;;;;;;;4944502;29;20047;-58
2020/12/17 04:22:08;;;;;;;3.53;0.80;;;;;;;;;;4944566;29;20040;-59
2020/12/17 04:24:34;;;;;;;4.68;0.80;;;;;;;;;;4944029;29;20038;-59
2020/12/17 04:27:01;;;;;;;4.90;1.10;;;;;;;;;;4946386;29;20055;-59
2020/12/17 04:29:27;;;;;;;8.05;1.52;;;;;;;;;;4940489;29;20043;-57
2020/12/17 04:31:53;;;;;;;5.70;1.75;;;;;;;;;;4945396;29;20035;-59
2020/12/17 04:34:19;;;;;;;9.15;2.60;;;;;;;;;;4942759;29;20059;-58
2020/12/17 04:36:45;;;;;;;7.90;2.60;;;;;;;;;;4945575;29;20032;-58
2020/12/17 04:39:11;;;;;;;9.50;2.78;;;;;;;;;;4945287;29;20051;-57
2020/12/17 04:41:38;;;;;;;8.13;2.40;;;;;;;;;;4943678;29;20505;-58
2020/12/17 04:44:04;;;;;;;11.23;2.75;;;;;;;;;;4944223;29;20031;-58
2020/12/17 04:46:31;;;;;;;14.05;3.10;;;;;;;;;;4942999;29;20054;-59
2020/12/17 04:48:58;;;;;;;11.15;2.63;;;;;;;;;;4942733;29;20162;-59
2020/12/17 04:51:25;;;;;;;9.98;2.60;;;;;;;;;;4943741;29;20043;-60
2020/12/17 04:53:50;;;;;;;10.50;2.70;;;;;;;;;;4943846;29;20051;-58
2020/12/17 04:56:17;;;;;;;11.40;3.08;;;;;;;;;;4944004;29;20094;-60
2020/12/17 04:58:47;;;;;;;8.52;2.50;;;;;;;;;;4943070;29;20104;-60
2020/12/17 05:01:17;;;;;;;12.43;2.63;;;;;;;;;;4943635;29;20043;-59
2020/12/17 05:03:46;;;;;;;14.52;2.30;;;;;;;;;;4941703;29;20048;-59
2020/12/17 05:06:19;;;;;;;9.90;2.70;;;;;;;;;;4942159;29;20066;-59
2020/12/17 05:08:45;;;;;;;13.90;3.00;;;;;;;;;;4943611;29;20071;-59
2020/12/17 05:11:11;;;;;;;11.05;2.80;;;;;;;;;;4944198;28;20047;-59
2020/12/17 05:13:36;;;;;;;11.35;3.05;;;;;;;;;;4941215;29;20039;-58
2020/12/17 05:16:03;;;;;;;12.25;3.55;;;;;;;;;;4943119;29;20071;-59
2020/12/17 05:18:29;;;;;;;12.15;2.60;;;;;;;;;;4924362;29;20043;-59
2020/12/17 05:20:55;;;;;;;11.48;2.50;;;;;;;;;;4944028;29;20043;-59
2020/12/17 05:23:23;;;;;;;9.52;2.58;;;;;;;;;;4925199;29;20064;-58
2020/12/17 05:25:50;;;;;;;12.00;2.70;;;;;;;;;;4943418;29;22207;-59
2020/12/17 05:28:16;;;;;;;12.27;3.05;;;;;;;;;;4945289;29;20081;-59
2020/12/17 05:30:42;;;;;;;7.13;3.25;;;;;;;;;;4942142;29;20154;-59
2020/12/17 05:33:08;;;;;;;14.35;2.78;;;;;;;;;;4944347;29;20101;-59
2020/12/17 05:35:34;;;;;;;6.00;2.67;;;;;;;;;;4947693;29;20131;-59
2020/12/17 05:38:02;;;;;;;8.98;2.60;;;;;;;;;;4947962;29;20045;-60
2020/12/17 05:40:28;;;;;;;9.48;2.58;;;;;;;;;;4947585;29;20079;-60
2020/12/17 05:42:54;;;;;;;14.45;3.20;;;;;;;;;;4944566;29;20047;-59
2020/12/17 05:45:27;;;;;;;11.30;3.13;;;;;;;;;;4947673;29;20046;-60
2020/12/17 05:48:13;;;;;;;13.23;3.03;;;;;;;;;;4946320;29;20063;-59
2020/12/17 05:50:49;;;;;;;9.20;2.78;;;;;;;;;;4944398;29;20071;-59
2020/12/17 05:53:16;;;;;;;6.88;2.72;;;;;;;;;;4945798;29;20043;-59
2020/12/17 05:55:42;;;;;;;11.13;3.13;;;;;;;;;;4947960;29;20130;-60
2020/12/17 05:58:09;;;;;;;9.93;3.72;;;;;;;;;;4947212;29;20813;-58
2020/12/17 06:00:35;;;;;;;10.60;3.15;;;;;;;;;;4945914;29;20043;-60
2020/12/17 06:03:00;;;;;;;9.85;2.95;;;;;;;;;;4946069;29;20047;-59
2020/12/17 06:05:27;;;;;;;7.75;2.63;;;;;;;;;;4945916;29;20062;-57
2020/12/17 06:07:57;;;;;;;6.38;2.33;;;;;;;;;;4946336;29;20132;-59
2020/12/17 06:10:27;;;;;;;10.02;2.47;;;;;;;;;;4944570;29;20044;-58
2020/12/17 06:12:57;;;;;;;6.38;2.70;;;;;;;;;;4948079;29;20112;-59
2020/12/17 06:15:27;;;;;;;8.10;2.60;;;;;;;;;;4944734;29;20056;-59
2020/12/17 06:17:53;;;;;;;9.73;2.45;;;;;;;;;;4945380;29;20107;-59
2020/12/17 06:20:20;;;;;;;9.32;2.70;;;;;;;;;;4945896;29;20046;-59
2020/12/17 06:22:58;;;;;;;7.30;2.30;;;;;;;;;;4945664;29;20051;-59
2020/12/17 06:25:25;;;;;;;8.77;2.40;;;;;;;;;;4945366;29;20098;-59
2020/12/17 06:27:51;;;;;;;8.10;2.25;;;;;;;;;;4948052;29;20050;-59
2020/12/17 06:30:19;;;;;;;8.15;2.50;;;;;;;;;;4947132;29;20047;-59
2020/12/17 06:32:45;;;;;;;5.97;2.30;;;;;;;;;;4945395;29;20059;-59
2020/12/17 06:35:23;;;;;;;6.68;2.20;;;;;;;;;;4945688;29;20052;-60
2020/12/17 06:37:51;;;;;;;6.85;2.58;;;;;;;;;;4947075;29;20051;-59
2020/12/17 06:40:27;;;;;;;5.40;1.85;;;;;;;;;;4946643;29;20047;-59
2020/12/17 06:42:53;;;;;;;4.45;1.60;;;;;;;;;;4945931;29;20184;-60
2020/12/17 06:45:32;;;;;;;6.28;1.70;;;;;;;;;;4945359;28;20701;-60
2020/12/17 06:47:57;;;;;;;6.20;1.73;;;;;;;;;;4945610;29;20540;-59
2020/12/17 06:50:24;;;;;;;7.25;1.73;;;;;;;;;;4945111;29;20059;-59
2020/12/17 06:53:03;;;;;;;6.28;1.60;;;;;;;;;;4947203;29;20047;-59
2020/12/17 06:55:43;;;;;;;5.00;1.70;;;;;;;;;;4947037;29;21961;-60
2020/12/17 06:58:18;;;;;;;4.70;1.17;;;;;;;;;;4945507;29;20070;-59
2020/12/17 07:00:44;;;;;;;4.55;1.40;;;;;;;;;;4944746;29;20119;-59
2020/12/17 07:03:10;;;;;;;3.45;1.10;;;;;;;;;;4945034;29;20064;-59
2020/12/17 07:05:38;;;;;;;5.18;1.23;;;;;;;;;;4945018;29;20051;-60
2020/12/17 07:08:04;;;;;;;6.15;1.40;;;;;;;;;;4946448;29;20062;-59
2020/12/17 07:10:30;;;;;;;4.18;1.20;;;;;;;;;;4944103;29;20083;-59
2020/12/17 07:12:56;;;;;;;4.00;1.13;;;;;;;;;;4945754;29;20080;-60
2020/12/17 07:15:29;;;;;;;3.47;1.05;;;;;;;;;;4929027;29;20052;-61
2020/12/17 07:18:15;;;;;;;4.32;1.60;;;;;;;;;;4945138;29;20063;-60
2020/12/17 07:20:42;;;;;;;3.78;1.30;;;;;;;;;;4945475;29;20103;-60
2020/12/17 07:23:09;;;;;;;4.00;1.20;;;;;;;;;;4945522;29;20040;-60
2020/12/17 07:25:37;;;;;;;4.30;1.40;;;;;;;;;;4945554;29;20043;-60
2020/12/17 07:28:04;;;;;;;3.33;1.20;;;;;;;;;;4945020;28;20045;-61
2020/12/17 07:30:30;;;;;;;3.35;1.05;;;;;;;;;;4944173;29;20916;-59
2020/12/17 07:32:56;;;;;;;4.40;1.05;;;;;;;;;;4944099;29;20095;-59
2020/12/17 07:35:23;;;;;;;5.10;1.20;;;;;;;;;;4944964;29;20055;-59
2020/12/17 07:37:57;;;;;;;5.90;1.02;;;;;;;;;;4944417;29;20093;-60
2020/12/17 07:40:41;;;;;;;3.80;1.17;;;;;;;;;;4944422;29;20055;-60
2020/12/17 07:43:14;;;;;;;3.42;1.10;;;;;;;;;;4944266;29;20047;-60
2020/12/17 07:45:53;;;;;;;3.80;1.13;;;;;;;;;;4946456;29;20043;-60
2020/12/17 07:48:34;;;;;;;3.58;1.10;;;;;;;;;;4943304;29;20524;-60
2020/12/17 07:51:01;;;;;;;3.60;0.90;;;;;;;;;;4946017;29;20047;-59
2020/12/17 07:53:27;;;;;;;5.72;1.70;;;;;;;;;;4941497;29;20044;-60
2020/12/17 07:55:53;;;;;;;5.00;1.45;;;;;;;;;;4942979;28;20055;-60
2020/12/17 07:58:19;;;;;;;3.78;1.60;;;;;;;;;;4943588;29;20042;-61
2020/12/17 08:00:45;;;;;;;8.68;1.77;;;;;;;;;;4945251;29;20069;-59
2020/12/17 08:03:11;;;;;;;5.13;1.70;;;;;;;;;;4943818;29;20062;-59
2020/12/17 08:05:38;;;;;;;4.65;1.45;;;;;;;;;;4930264;29;20056;-60
2020/12/17 08:08:03;;;;;;;3.97;1.50;;;;;;;;;;4909105;29;20055;-60
2020/12/17 08:10:30;;;;;;;3.90;1.40;;;;;;;;;;4924790;29;20036;-59
2020/12/17 08:12:59;;;;;;;6.55;1.50;;;;;;;;;;4923540;29;20044;-58
2020/12/17 08:15:24;;;;;;;4.07;1.23;;;;;;;;;;4925646;29;22711;-60
2020/12/17 08:17:55;;;;;;;3.80;1.48;;;;;;;;;;4925396;29;20059;-59
2020/12/17 08:20:21;;;;;;;3.90;1.85;;;;;;;;;;4923796;29;20127;-60
2020/12/17 08:22:48;;;;;;;3.65;1.30;;;;;;;;;;4925906;29;20068;-59
2020/12/17 08:25:16;;;;;;;3.40;1.27;;;;;;;;;;4923708;29;20062;-61
2020/12/17 08:27:42;;;;;;;3.10;1.25;;;;;;;;;;4923000;29;20140;-60
2020/12/17 08:30:07;;;;;;;4.90;1.40;;;;;;;;;;4909456;29;20059;-60
2020/12/17 08:32:34;;;;;;;4.43;1.17;;;;;;;;;;4924134;29;20044;-60
2020/12/17 08:35:00;;;;;;;5.47;1.30;;;;;;;;;;4925269;29;20078;-60
2020/12/17 08:37:26;;;;;;;2.95;1.00;;;;;;;;;;4925641;29;20060;-59
2020/12/17 08:39:57;;;;;;;3.25;0.90;;;;;;;;;;4923931;29;20054;-60
2020/12/17 08:42:24;;;;;;;4.15;1.33;;;;;;;;;;4925697;29;20040;-60
2020/12/17 08:44:52;;;;;;;3.65;1.00;;;;;;;;;;4904340;29;20039;-60
2020/12/17 08:47:18;;;;;;;3.90;1.00;;;;;;;;;;4924995;29;20044;-60
2020/12/17 08:49:45;;;;;;;3.58;1.17;;;;;;;;;;4925147;29;20046;-58
2020/12/17 08:52:11;;;;;;;3.13;1.40;;;;;;;;;;4922850;29;20040;-58
2020/12/17 08:54:37;;;;;;;7.10;1.30;;;;;;;;;;4923739;29;22931;-59
2020/12/17 08:57:04;;;;;;;5.13;1.33;;;;;;;;;;4923707;29;21058;-60
2020/12/17 08:59:30;;;;;;;3.22;0.93;;;;;;;;;;4924440;29;20585;-59
2020/12/17 09:01:57;;;;;;;3.00;1.15;;;;;;;;;;4925406;29;20048;-60
2020/12/17 09:04:23;;;;;;;3.33;1.20;;;;;;;;;;4922972;29;20044;-61
2020/12/17 09:06:53;;;;;;;4.25;1.20;;;;;;;;;;4926541;29;20062;-60
2020/12/17 09:09:26;;;;;;;4.28;1.40;;;;;;;;;;4925431;29;20144;-60
2020/12/17 09:11:53;;;;;;;6.25;1.10;;;;;;;;;;4929658;29;20028;-60
2020/12/17 09:14:22;;;;;;;4.75;1.33;;;;;;;;;;4928156;29;20079;-60
2020/12/17 09:16:51;;;;;;;4.32;1.55;;;;;;;;;;4929680;29;20039;-60
2020/12/17 09:19:17;;;;;;;4.38;1.10;;;;;;;;;;4927273;29;20421;-59
2020/12/17 09:21:59;;;;;;;3.17;1.10;;;;;;;;;;4928205;29;20032;-60
2020/12/17 09:24:26;;;;;;;7.25;1.40;;;;;;;;;;4927471;29;20042;-60
2020/12/17 09:26:52;;;;;;;3.38;1.10;;;;;;;;;;4925854;29;20056;-60
2020/12/17 09:29:18;;;;;;;3.35;1.05;;;;;;;;;;4928509;29;20051;-59
2020/12/17 09:31:44;;;;;;;2.80;0.95;;;;;;;;;;4927936;29;20048;-60
2020/12/17 09:34:11;;;;;;;3.85;1.20;;;;;;;;;;4913414;29;20043;-61
2020/12/17 09:36:38;;;;;;;5.03;1.30;;;;;;;;;;4929219;29;20070;-59
2020/12/17 09:39:05;;;;;;;4.07;1.40;;;;;;;;;;4928990;29;20036;-60
2020/12/17 09:41:31;;;;;;;4.00;1.33;;;;;;;;;;4926151;29;20039;-58
2020/12/17 09:43:57;;;;;;;3.70;1.55;;;;;;;;;;4928451;29;20048;-60
2020/12/17 09:46:23;;;;;;;4.90;1.10;;;;;;;;;;4928452;29;20050;-58
2020/12/17 09:48:49;;;;;;;4.65;1.10;;;;;;;;;;4927956;29;20043;-59
2020/12/17 09:51:19;;;;;;;3.42;1.20;;;;;;;;;;4928721;29;20190;-58
2020/12/17 09:53:45;;;;;;;3.00;1.20;;;;;;;;;;4926840;29;20044;-59
2020/12/17 09:56:11;;;;;;;3.47;1.58;;;;;;;;;;4928605;29;20040;-60
2020/12/17 09:58:37;;;;;;;3.88;1.70;;;;;;;;;;4910403;29;20095;-60
2020/12/17 10:01:04;;;;;;;3.63;1.35;;;;;;;;;;4927392;29;20051;-60
2020/12/17 10:03:30;;;;;;;4.78;1.25;;;;;;;;;;4926933;29;20036;-58
2020/12/17 10:05:56;;;;;;;6.25;1.70;;;;;;;;;;4928313;29;20055;-59
2020/12/17 10:08:22;;;;;;;3.78;1.60;;;;;;;;;;4926374;29;20036;-59
2020/12/17 10:10:48;;;;;;;3.17;1.30;;;;;;;;;;4926515;29;20098;-60
2020/12/17 10:13:14;;;;;;;3.85;1.33;;;;;;;;;;4925690;29;20052;-60
2020/12/17 10:15:40;;;;;;;4.13;1.50;;;;;;;;;;4927139;29;20398;-60
2020/12/17 10:18:06;;;;;;;5.03;1.63;;;;;;;;;;4927942;29;20236;-61
2020/12/17 10:20:31;;;;;;;3.65;1.40;;;;;;;;;;4926074;29;20040;-60
2020/12/17 10:22:57;;;;;;;4.68;1.48;;;;;;;;;;4924681;29;20051;-60
2020/12/17 10:25:23;;;;;;;4.22;1.50;;;;;;;;;;4926764;29;20078;-60
2020/12/17 10:27:50;;;;;;;3.60;1.40;;;;;;;;;;4926929;29;20038;-59
2020/12/17 10:30:16;;;;;;;4.13;1.45;;;;;;;;;;4926779;29;20050;-59
2020/12/17 10:32:42;;;;;;;3.45;1.20;;;;;;;;;;4924774;29;20142;-60
2020/12/17 10:35:08;;;;;;;5.85;1.70;;;;;;;;;;4926742;29;20454;-58
2020/12/17 10:37:34;;;;;;;4.70;1.70;;;;;;;;;;4926276;29;20039;-60
2020/12/17 10:40:01;;;;;;;6.50;1.65;;;;;;;;;;4926517;29;20044;-60
2020/12/17 10:42:27;;;;;;;5.78;1.52;;;;;;;;;;4925920;29;20042;-59
2020/12/17 10:44:53;;;;;;;4.55;1.58;;;;;;;;;;4927941;29;20048;-58
2020/12/17 10:47:19;;;;;;;4.40;1.48;;;;;;;;;;4927045;29;20132;-60
2020/12/17 10:49:46;;;;;;;5.55;1.80;;;;;;;;;;4926307;29;20044;-60
2020/12/17 10:52:12;;;;;;;7.20;1.77;;;;;;;;;;4927109;29;20044;-60
2020/12/17 10:54:38;;;;;;;5.43;1.80;;;;;;;;;;4924741;29;20146;-59
2020/12/17 10:57:04;;;;;;;5.53;2.10;;;;;;;;;;4926933;29;20044;-59
2020/12/17 11:04:40;;;;;;;4.65;1.70;;;;;;;;;;4965554;23;20036;-59
2020/12/17 11:07:06;;;;;;;7.15;1.80;;;;;;;;;;4909676;29;20048;-60
2020/12/17 11:09:32;;;;;;;5.32;1.75;;;;;;;;;;4905648;29;20032;-58
2020/12/17 11:11:57;;;;;;;10.73;2.15;;;;;;;;;;4906510;29;20032;-58
2020/12/17 11:14:23;;;;;;;5.68;1.95;;;;;;;;;;4903936;29;20056;-59
2020/12/17 11:16:50;;;;;;;6.45;1.90;;;;;;;;;;4906488;29;20111;-58
2020/12/17 11:19:16;;;;;;;5.75;1.60;;;;;;;;;;4904598;29;20048;-59
2020/12/17 11:21:42;;;;;;;5.32;1.60;;;;;;;;;;4904618;29;20051;-59
2020/12/17 11:24:08;;;;;;;5.20;1.40;;;;;;;;;;4906190;29;20039;-59
2020/12/17 11:26:34;;;;;;;4.97;1.58;;;;;;;;;;4906815;29;20044;-59
2020/12/17 11:28:59;;;;;;;4.00;1.40;;;;;;;;;;4905494;29;20040;-59
2020/12/17 11:31:26;;;;;;;3.90;1.35;;;;;;;;;;4903050;29;20044;-59
2020/12/17 11:33:52;;;;;;;4.35;1.40;;;;;;;;;;4900234;29;20066;-58
2020/12/17 11:36:18;;;;;;;4.18;1.20;;;;;;;;;;4905280;29;20144;-59
2020/12/17 11:38:44;;;;;;;3.38;1.00;;;;;;;;;;4906149;29;20051;-59
2020/12/17 11:41:13;;;;;;;3.50;1.10;;;;;;;;;;4905146;29;20043;-59
2020/12/17 11:43:39;;;;;;;3.58;1.20;;;;;;;;;;4903671;29;20072;-59
2020/12/17 11:46:05;;;;;;;4.10;1.25;;;;;;;;;;4907220;29;20607;-58
2020/12/17 11:48:30;;;;;;;4.78;1.13;;;;;;;;;;4903755;29;20043;-57
2020/12/17 11:50:56;;;;;;;3.67;1.13;;;;;;;;;;4904557;29;20040;-58
2020/12/17 11:53:22;;;;;;;3.95;1.40;;;;;;;;;;4905763;29;20063;-57
2020/12/17 11:55:48;;;;;;;4.45;1.55;;;;;;;;;;4905501;29;20052;-58
2020/12/17 11:58:14;;;;;;;3.90;1.30;;;;;;;;;;4905704;29;20123;-60
2020/12/17 12:00:40;;;;;;;3.65;1.40;;;;;;;;;;4905794;29;20040;-59
2020/12/17 12:03:06;;;;;;;5.28;1.42;;;;;;;;;;4907460;29;20052;-58
2020/12/17 12:05:32;;;;;;;3.55;1.40;;;;;;;;;;4879175;29;1714901;-56
2020/12/17 12:07:58;;;;;;;6.38;1.60;;;;;;;;;;4945997;29;20047;-58
2020/12/17 12:10:25;;;;;;;5.25;1.52;;;;;;;;;;4939940;28;20039;-57
2020/12/17 12:12:51;;;;;;;3.90;1.27;;;;;;;;;;4945573;29;20063;-57
2020/12/17 12:15:17;;;;;;;3.70;1.27;;;;;;;;;;4943153;29;20048;-58
2020/12/17 12:17:43;;;;;;;3.97;1.17;;;;;;;;;;4933266;29;20102;-55
2020/12/17 12:20:09;;;;;;;3.70;1.40;;;;;;;;;;4944636;29;20082;-57
2020/12/17 12:22:35;;;;;;;9.70;2.13;;;;;;;;;;4943623;29;20487;-58
2020/12/17 12:25:01;;;;;;;3.72;1.58;;;;;;;;;;4943484;29;20131;-57
2020/12/17 12:27:27;;;;;;;5.50;1.60;;;;;;;;;;4943305;29;20057;-58
2020/12/17 12:29:53;;;;;;;4.70;1.60;;;;;;;;;;4944849;29;20044;-58
2020/12/17 12:32:18;;;;;;;3.97;1.30;;;;;;;;;;4943841;29;20229;-58
2020/12/17 12:34:44;;;;;;;5.28;1.60;;;;;;;;;;4928220;29;20054;-59
2020/12/17 12:37:11;;;;;;;4.68;1.40;;;;;;;;;;4944102;29;20043;-57
2020/12/17 12:39:37;;;;;;;5.25;1.45;;;;;;;;;;4943317;29;20044;-59
2020/12/17 12:42:05;;;;;;;4.07;1.63;;;;;;;;;;4943087;29;20050;-58
2020/12/17 12:44:31;;;;;;;5.03;1.40;;;;;;;;;;4946660;29;20114;-58
2020/12/17 12:46:57;;;;;;;5.00;1.58;;;;;;;;;;4947393;29;20067;-57
2020/12/17 12:49:23;;;;;;;4.78;1.45;;;;;;;;;;4933036;29;20035;-57
2020/12/17 12:51:49;;;;;;;3.53;1.25;;;;;;;;;;4948702;29;20550;-57
2020/12/17 12:54:15;;;;;;;5.10;1.20;;;;;;;;;;4942567;29;20114;-56
2020/12/17 12:56:41;;;;;;;4.75;1.10;;;;;;;;;;4945864;29;20054;-55
2020/12/17 12:59:06;;;;;;;4.10;1.00;;;;;;;;;;4947631;29;20040;-56
2020/12/17 13:01:36;;;;;;;3.88;0.90;;;;;;;;;;4947696;29;20044;-55
2020/12/17 13:04:02;;;;;;;4.45;0.88;;;;;;;;;;4947438;29;20060;-58
2020/12/17 13:06:28;;;;;;;3.53;0.82;;;;;;;;;;4947813;29;20046;-57
2020/12/17 13:08:54;;;;;;;3.33;0.70;;;;;;;;;;4947054;29;20047;-55
2020/12/17 13:11:21;;;;;;;2.20;0.70;;;;;;;;;;4945410;29;20040;-56
2020/12/17 13:13:47;;;;;;;2.90;0.90;;;;;;;;;;4945837;29;20066;-57
2020/12/17 13:16:21;;;;;;;2.85;0.63;;;;;;;;;;4947818;29;20063;-58
2020/12/17 13:18:46;;;;;;;;;;;;;;;;;;4948085;29;20063;-57
2020/12/17 13:21:16;;;;;;;2.53;0.80;;;;;;;;;;4937613;29;19929;-57
2020/12/17 13:23:42;;;;;;;4.18;0.82;;;;;;;;;;4946208;29;20055;-57
2020/12/17 13:26:07;;;;;;;3.70;0.85;;;;;;;;;;4949049;29;20044;-57
2020/12/17 13:28:33;;;;;;;2.88;0.80;;;;;;;;;;4945413;29;20809;-57
2020/12/17 13:30:59;;;;;;;2.67;0.70;;;;;;;;;;4945678;29;20059;-56
2020/12/17 13:33:25;;;;;;;1.75;0.70;;;;;;;;;;4941074;29;20094;-57
2020/12/17 13:35:51;;;;;;;3.25;0.80;;;;;;;;;;4946230;29;20066;-58
2020/12/17 13:38:17;;;;;;;2.20;0.70;;;;;;;;;;4946505;29;20121;-58
2020/12/17 13:40:42;;;;;;;2.85;0.80;;;;;;;;;;4946750;29;20070;-59
2020/12/17 13:43:08;;;;;;;2.55;0.63;;;;;;;;;;4947853;29;20104;-58
2020/12/17 13:45:34;;;;;;;4.30;0.80;;;;;;;;;;4947310;29;20044;-58
2020/12/17 13:48:00;;;;;;;2.67;0.63;;;;;;;;;;4946647;29;20041;-58
2020/12/17 13:50:26;;;;;;;1.58;0.50;;;;;;;;;;4946518;29;20046;-58
2020/12/17 13:52:52;;;;;;;5.88;0.95;;;;;;;;;;4949579;29;20057;-58
2020/12/17 13:55:17;;;;;;;6.78;0.70;;;;;;;;;;4945927;29;20058;-58
2020/12/17 13:57:43;;;;;;;2.40;1.00;;;;;;;;;;4946952;29;20046;-58
2020/12/17 14:00:09;;;;;;;3.30;0.70;;;;;;;;;;4948128;29;20047;-55
2020/12/17 14:02:35;;;;;;;1.80;0.60;;;;;;;;;;4945540;29;20468;-58
2020/12/17 14:05:02;;;;;;;2.17;0.60;;;;;;;;;;4945130;29;20052;-56
2020/12/17 14:07:29;;;;;;;2.25;0.60;;;;;;;;;;4944209;29;20047;-59
2020/12/17 14:09:55;;;;;;;2.75;0.70;;;;;;;;;;4930937;29;20412;-58
2020/12/17 14:12:20;;;;;;;3.33;0.80;;;;;;;;;;4946664;29;20103;-59
2020/12/17 14:14:46;;;;;;;3.03;0.70;;;;;;;;;;4944490;29;20056;-57
2020/12/17 14:17:12;;;;;;;2.70;0.70;;;;;;;;;;4944986;29;20051;-55
2020/12/17 14:19:38;;;;;;;2.72;0.90;;;;;;;;;;4947188;29;20307;-57
2020/12/17 14:22:04;;;;;;;3.53;0.85;;;;;;;;;;4947012;29;20098;-58
2020/12/17 14:24:30;;;;;;;2.63;0.80;;;;;;;;;;4944463;29;20046;-57
2020/12/17 14:26:56;;;;;;;2.60;0.75;;;;;;;;;;4945676;29;20038;-57
2020/12/17 14:29:21;;;;;;;3.85;0.98;;;;;;;;;;4945328;29;20035;-56
2020/12/17 14:31:47;;;;;;;2.83;0.80;;;;;;;;;;4944922;29;20047;-57
2020/12/17 14:34:13;;;;;;;3.85;0.90;;;;;;;;;;4946250;29;20047;-57
2020/12/17 14:36:40;;;;;;;4.70;0.95;;;;;;;;;;4945082;29;20039;-57
2020/12/17 14:39:06;;;;;;;3.83;0.80;;;;;;;;;;4946368;29;20044;-58
2020/12/17 14:41:32;;;;;;;3.30;0.80;;;;;;;;;;4945107;29;20040;-58